Time;durP1;ratioP1;P1;durP2;ratioP2;P2;SDS_P1;SDS_P2;PMS_P1;PMS_P2;Temp;Humidity;BMP_temperature;BMP_pressure;BME280_temperature;BME280_humidity;BME280_pressure;Samples;Min_cycle;Max_cycle;Signal;HPM_P1;HPM_P2
2020/12/28 00:00:12;;;;;;;7.00;6.50;;;2.20;99.90;;;;;;5061146;28;20092;-70
2020/12/28 00:02:40;;;;;;;6.50;6.10;;;2.20;99.90;;;;;;5028601;28;20075;-71
2020/12/28 00:05:08;;;;;;;6.00;5.72;;;2.20;99.90;;;;;;5044838;28;20053;-71
2020/12/28 00:07:36;;;;;;;6.45;6.15;;;2.20;99.90;;;;;;5036758;28;20525;-71
2020/12/28 00:10:04;;;;;;;6.32;6.03;;;2.20;99.90;;;;;;5046867;28;20426;-71
2020/12/28 00:12:46;;;;;;;6.40;6.00;;;2.20;99.90;;;;;;5045839;28;20037;-71
2020/12/28 00:15:20;;;;;;;6.90;6.30;;;2.30;99.90;;;;;;5028322;28;20045;-71
2020/12/28 00:17:49;;;;;;;6.57;6.18;;;2.30;99.90;;;;;;5045304;28;20150;-71
2020/12/28 00:20:16;;;;;;;7.00;6.50;;;2.30;99.90;;;;;;5044202;28;20057;-70
2020/12/28 00:22:42;;;;;;;6.15;5.85;;;2.30;99.90;;;;;;5045127;28;20131;-71
2020/12/28 00:25:09;;;;;;;6.85;6.45;;;2.30;99.90;;;;;;5027889;28;20059;-71
2020/12/28 00:27:35;;;;;;;6.40;6.00;;;2.30;99.90;;;;;;5026944;28;20045;-70
2020/12/28 00:30:04;;;;;;;6.18;5.78;;;2.30;99.90;;;;;;5044981;28;20041;-70
2020/12/28 00:32:35;;;;;;;6.22;5.85;;;2.30;99.90;;;;;;5011892;28;20079;-71
2020/12/28 00:35:03;;;;;;;6.60;6.20;;;2.30;99.90;;;;;;5044250;28;20049;-70
2020/12/28 00:37:30;;;;;;;6.22;5.88;;;2.30;99.90;;;;;;5020137;28;20053;-71
2020/12/28 00:39:56;;;;;;;7.22;6.72;;;2.30;99.90;;;;;;5044822;28;20533;-70
2020/12/28 00:42:23;;;;;;;5.93;5.63;;;2.30;99.90;;;;;;5044025;28;20060;-70
2020/12/28 00:44:50;;;;;;;6.05;5.75;;;2.30;99.90;;;;;;5028268;28;20135;-70
2020/12/28 00:47:16;;;;;;;5.88;5.53;;;2.40;99.90;;;;;;5027586;28;20041;-69
2020/12/28 00:49:43;;;;;;;6.65;6.25;;;2.30;99.90;;;;;;5006011;28;20045;-70
2020/12/28 00:52:10;;;;;;;6.78;6.38;;;2.40;99.90;;;;;;5043966;28;20049;-70
2020/12/28 00:54:36;;;;;;;7.38;6.90;;;2.40;99.90;;;;;;5044449;28;20041;-70
2020/12/28 00:57:03;;;;;;;8.25;7.70;;;2.30;99.90;;;;;;5028038;28;20103;-70
2020/12/28 00:59:30;;;;;;;9.00;8.25;;;2.40;99.90;;;;;;5024974;28;20526;-71
2020/12/28 01:01:58;;;;;;;9.63;8.93;;;2.30;99.90;;;;;;5025460;28;20140;-71
2020/12/28 01:04:26;;;;;;;10.52;9.63;;;2.30;99.90;;;;;;5027873;28;20095;-71
2020/12/28 01:06:57;;;;;;;9.30;8.57;;;2.20;99.90;;;;;;5032068;28;20132;-71
2020/12/28 01:09:42;;;;;;;9.65;8.85;;;2.10;99.90;;;;;;5026117;28;20132;-70
2020/12/28 01:12:08;;;;;;;12.35;9.93;;;2.10;99.90;;;;;;5042453;28;20124;-70
2020/12/28 01:14:37;;;;;;;10.55;9.60;;;2.00;99.90;;;;;;5044055;28;20144;-70
2020/12/28 01:17:04;;;;;;;10.73;9.73;;;2.00;99.90;;;;;;5027108;28;20135;-70
2020/12/28 01:19:41;;;;;;;11.10;10.07;;;2.00;99.90;;;;;;5043801;28;20115;-70
2020/12/28 01:22:07;;;;;;;9.68;8.77;;;2.10;99.90;;;;;;5010817;28;20147;-70
2020/12/28 01:24:35;;;;;;;8.05;7.35;;;2.00;99.90;;;;;;5027838;28;20152;-70
2020/12/28 01:27:01;;;;;;;10.05;9.20;;;2.00;99.90;;;;;;5025771;28;20414;-71
2020/12/28 01:29:27;;;;;;;10.40;9.43;;;2.00;99.90;;;;;;5044141;28;20608;-71
2020/12/28 01:31:54;;;;;;;9.35;8.48;;;2.00;99.90;;;;;;5043668;28;20087;-71
2020/12/28 01:34:38;;;;;;;8.80;8.10;;;2.00;99.90;;;;;;5043607;28;20140;-71
2020/12/28 01:37:05;;;;;;;9.85;8.95;;;2.10;99.90;;;;;;5038697;28;20052;-70
2020/12/28 01:39:50;;;;;;;8.18;7.45;;;2.10;99.90;;;;;;5027013;28;20045;-70
2020/12/28 01:42:17;;;;;;;8.70;7.97;;;2.10;99.90;;;;;;5029730;28;20064;-70
2020/12/28 01:44:48;;;;;;;10.15;9.15;;;2.00;99.90;;;;;;5024063;28;20068;-70
2020/12/28 01:47:20;;;;;;;8.70;7.90;;;2.00;99.90;;;;;;5032381;28;20049;-70
2020/12/28 01:49:47;;;;;;;9.55;8.65;;;2.00;99.90;;;;;;5043222;28;20394;-71
2020/12/28 01:52:15;;;;;;;9.35;8.43;;;2.10;99.90;;;;;;5043231;28;20685;-70
2020/12/28 01:54:42;;;;;;;9.68;8.68;;;2.00;99.90;;;;;;5059788;28;20519;-69
2020/12/28 01:57:14;;;;;;;7.63;6.88;;;2.00;99.90;;;;;;5035633;28;20071;-70
2020/12/28 01:59:47;;;;;;;;;;;2.00;99.90;;;;;;5027394;28;20544;-70
2020/12/28 02:02:25;;;;;;;8.68;7.78;;;2.10;99.90;;;;;;5025278;28;19930;-71
2020/12/28 02:04:52;;;;;;;8.25;7.40;;;2.10;99.90;;;;;;5026896;28;20429;-70
2020/12/28 02:07:22;;;;;;;10.23;8.98;;;2.10;99.90;;;;;;5013938;28;20049;-70
2020/12/28 02:09:49;;;;;;;9.15;8.25;;;2.10;99.90;;;;;;5023623;28;20132;-70
2020/12/28 02:12:16;;;;;;;9.82;8.82;;;2.10;99.90;;;;;;5041132;28;20527;-71
2020/12/28 02:14:42;;;;;;;8.73;7.82;;;2.10;99.90;;;;;;5043424;28;20489;-70
2020/12/28 02:17:34;;;;;;;8.65;7.80;;;2.20;99.90;;;;;;5020090;28;20057;-71
2020/12/28 02:20:11;;;;;;;7.88;7.18;;;2.20;99.90;;;;;;5011574;28;20047;-71
2020/12/28 02:22:39;;;;;;;8.25;7.45;;;2.20;99.90;;;;;;5043498;28;20049;-71
2020/12/28 02:25:06;;;;;;;7.47;6.88;;;2.30;99.90;;;;;;5025124;28;20488;-70
2020/12/28 02:27:34;;;;;;;8.07;7.38;;;2.30;99.90;;;;;;5033446;28;20120;-70
2020/12/28 02:30:00;;;;;;;8.18;7.40;;;2.30;99.90;;;;;;5004889;28;20049;-70
2020/12/28 02:32:33;;;;;;;7.05;6.35;;;2.40;99.90;;;;;;5001807;28;20141;-70
2020/12/28 02:35:20;;;;;;;7.07;6.47;;;2.40;99.90;;;;;;5029678;28;20049;-71
2020/12/28 02:37:52;;;;;;;6.40;5.90;;;2.40;99.90;;;;;;5018258;28;20143;-71
2020/12/28 02:40:19;;;;;;;6.13;5.63;;;2.40;99.90;;;;;;5025826;28;20049;-70
2020/12/28 02:42:49;;;;;;;5.63;5.22;;;2.50;99.90;;;;;;5029580;28;20115;-71
2020/12/28 02:45:34;;;;;;;6.25;5.68;;;2.40;99.90;;;;;;5042080;28;20056;-71
2020/12/28 02:48:19;;;;;;;6.20;5.70;;;2.50;99.90;;;;;;5041769;28;20095;-69
2020/12/28 02:51:05;;;;;;;5.93;5.53;;;2.50;99.90;;;;;;5042630;28;20065;-71
2020/12/28 02:53:49;;;;;;;6.35;5.85;;;2.40;99.90;;;;;;5042993;28;20140;-71
2020/12/28 02:56:34;;;;;;;5.97;5.53;;;2.40;99.90;;;;;;5047523;28;20569;-72
2020/12/28 02:59:19;;;;;;;4.97;4.68;;;2.50;99.90;;;;;;5042901;28;20068;-70
2020/12/28 03:02:04;;;;;;;5.63;5.22;;;2.50;99.90;;;;;;5045123;28;20057;-71
2020/12/28 03:04:49;;;;;;;5.43;5.03;;;2.50;99.90;;;;;;5046712;28;20052;-71
2020/12/28 03:07:34;;;;;;;5.15;4.85;;;2.50;99.90;;;;;;5037142;28;20371;-71
2020/12/28 03:10:20;;;;;;;5.00;4.70;;;2.50;99.90;;;;;;5027319;28;20049;-71
2020/12/28 03:13:04;;;;;;;6.05;5.65;;;2.50;99.90;;;;;;5028297;28;20037;-72
2020/12/28 03:15:49;;;;;;;5.13;4.72;;;2.60;99.90;;;;;;5027415;28;20176;-71
2020/12/28 03:18:34;;;;;;;6.10;5.70;;;2.60;99.90;;;;;;5040151;28;20045;-72
2020/12/28 03:21:19;;;;;;;5.40;5.10;;;2.60;99.90;;;;;;5031750;28;20083;-71
2020/12/28 03:24:14;;;;;;;5.28;4.97;;;2.60;99.90;;;;;;4991308;28;20042;-70
2020/12/28 03:27:02;;;;;;;5.25;4.85;;;2.60;99.90;;;;;;5025370;28;20053;-72
2020/12/28 03:29:47;;;;;;;5.68;5.38;;;2.50;99.90;;;;;;5027933;28;20045;-71
2020/12/28 03:32:32;;;;;;;5.07;4.78;;;2.50;99.90;;;;;;5026778;28;20072;-71
2020/12/28 03:35:36;;;;;;;5.10;4.80;;;2.50;99.90;;;;;;5038047;28;20517;-72
2020/12/28 03:38:21;;;;;;;5.60;5.20;;;2.60;99.90;;;;;;5043478;28;20429;-71
2020/12/28 03:41:05;;;;;;;5.43;5.13;;;2.60;99.90;;;;;;5030600;28;20421;-71
2020/12/28 03:43:50;;;;;;;5.07;4.78;;;2.60;99.90;;;;;;5046148;28;20528;-72
2020/12/28 03:46:35;;;;;;;6.60;6.10;;;2.60;99.90;;;;;;5046806;28;20049;-70
2020/12/28 03:49:20;;;;;;;6.03;5.63;;;2.60;99.90;;;;;;5044572;28;20037;-71
2020/12/28 03:52:05;;;;;;;6.13;5.63;;;2.60;99.90;;;;;;5034452;28;20132;-72
2020/12/28 03:54:50;;;;;;;6.97;6.40;;;2.60;99.90;;;;;;5045965;28;20060;-71
2020/12/28 03:57:35;;;;;;;6.50;6.00;;;2.50;99.90;;;;;;5025632;28;20744;-71
2020/12/28 04:00:21;;;;;;;6.93;6.43;;;2.50;99.90;;;;;;4996905;28;20089;-71
2020/12/28 04:03:06;;;;;;;7.50;6.93;;;2.60;99.90;;;;;;5044434;28;20048;-71
2020/12/28 04:05:51;;;;;;;6.55;6.15;;;2.60;99.90;;;;;;5027996;28;20053;-72
2020/12/28 04:08:36;;;;;;;7.28;6.68;;;2.60;99.90;;;;;;5041936;28;20053;-71
2020/12/28 04:11:21;;;;;;;6.25;5.85;;;2.60;99.90;;;;;;5044455;28;20079;-71
2020/12/28 04:13:57;;;;;;;7.43;6.82;;;2.70;99.90;;;;;;5028568;28;20052;-72
2020/12/28 04:16:24;;;;;;;6.70;6.20;;;2.70;99.90;;;;;;5044922;28;20160;-71
2020/12/28 04:18:50;;;;;;;7.28;6.72;;;2.70;99.90;;;;;;5028812;28;20140;-71
2020/12/28 04:21:16;;;;;;;6.72;6.22;;;2.70;99.90;;;;;;5044187;28;20170;-71
2020/12/28 04:23:42;;;;;;;6.70;6.20;;;2.70;99.90;;;;;;5028631;28;20511;-71
2020/12/28 04:26:09;;;;;;;5.68;5.30;;;2.80;99.90;;;;;;5044411;28;20064;-71
2020/12/28 04:28:35;;;;;;;6.00;5.50;;;2.80;99.90;;;;;;5044779;28;20052;-71
2020/12/28 04:31:02;;;;;;;5.90;5.50;;;2.80;99.90;;;;;;5044308;28;20232;-71
2020/12/28 04:33:29;;;;;;;6.35;5.95;;;2.90;99.90;;;;;;5044727;28;20060;-71
2020/12/28 04:35:55;;;;;;;5.45;5.05;;;2.90;99.90;;;;;;5041724;28;20068;-71
2020/12/28 04:38:21;;;;;;;5.90;5.55;;;2.90;99.90;;;;;;5041986;28;20052;-71
2020/12/28 04:40:47;;;;;;;6.75;6.25;;;2.90;99.90;;;;;;5045616;28;20049;-70
2020/12/28 04:43:14;;;;;;;6.18;5.80;;;2.90;99.90;;;;;;5044997;28;20080;-71
2020/12/28 04:45:40;;;;;;;6.13;5.72;;;2.90;99.90;;;;;;5028028;28;20037;-71
2020/12/28 04:48:08;;;;;;;6.72;6.13;;;3.00;99.90;;;;;;5028124;28;20047;-70
2020/12/28 04:50:39;;;;;;;6.47;5.97;;;3.00;99.90;;;;;;5041051;28;20124;-71
2020/12/28 04:53:06;;;;;;;5.97;5.68;;;3.00;99.90;;;;;;5044821;28;20041;-71
2020/12/28 04:55:33;;;;;;;6.15;5.75;;;3.00;99.90;;;;;;5043623;28;20051;-70
2020/12/28 04:58:00;;;;;;;6.30;5.90;;;3.00;99.90;;;;;;5027484;28;20053;-71
2020/12/28 05:00:26;;;;;;;6.80;6.40;;;2.90;99.90;;;;;;5044357;28;20057;-71
2020/12/28 05:02:53;;;;;;;6.32;6.03;;;3.00;99.90;;;;;;5045884;28;20157;-70
2020/12/28 05:05:20;;;;;;;7.90;7.40;;;2.90;99.90;;;;;;5043163;28;20113;-72
2020/12/28 05:07:50;;;;;;;6.82;6.43;;;3.00;99.90;;;;;;5035975;28;20041;-71
2020/12/28 05:10:22;;;;;;;7.68;7.18;;;3.00;99.90;;;;;;5027175;28;20045;-71
2020/12/28 05:12:49;;;;;;;8.02;7.53;;;3.00;99.90;;;;;;5011120;28;20250;-71
2020/12/28 05:15:16;;;;;;;7.50;7.10;;;3.00;99.90;;;;;;5027515;28;20037;-71
2020/12/28 05:17:42;;;;;;;8.25;7.75;;;3.00;99.90;;;;;;5043348;28;20045;-71
2020/12/28 05:20:08;;;;;;;8.75;8.25;;;3.10;99.90;;;;;;5026011;28;20067;-72
2020/12/28 05:22:35;;;;;;;7.97;7.47;;;3.10;99.90;;;;;;5026559;28;20095;-70
2020/12/28 05:25:02;;;;;;;8.27;7.78;;;3.00;99.90;;;;;;5027238;28;20055;-72
2020/12/28 05:27:28;;;;;;;8.20;7.70;;;3.10;99.90;;;;;;5044869;28;20049;-71
2020/12/28 05:29:56;;;;;;;7.68;7.28;;;3.10;99.90;;;;;;5027438;28;20156;-72
2020/12/28 05:32:23;;;;;;;8.20;7.70;;;3.10;99.90;;;;;;5042934;28;20565;-72
2020/12/28 05:34:49;;;;;;;7.50;7.10;;;3.10;99.90;;;;;;5043225;28;20055;-71
2020/12/28 05:37:18;;;;;;;7.57;7.18;;;3.10;99.90;;;;;;5017728;28;20048;-72
2020/12/28 05:39:47;;;;;;;7.55;7.07;;;3.10;99.90;;;;;;5044079;28;20114;-71
2020/12/28 05:42:14;;;;;;;8.18;7.68;;;3.00;99.90;;;;;;5043870;28;20091;-71
2020/12/28 05:44:42;;;;;;;7.15;6.80;;;3.00;99.90;;;;;;5045145;28;20506;-72
2020/12/28 05:47:14;;;;;;;7.78;7.38;;;3.00;99.90;;;;;;5043791;28;20138;-71
2020/12/28 05:49:44;;;;;;;7.95;7.55;;;3.00;99.90;;;;;;5038756;28;20068;-72
2020/12/28 05:52:15;;;;;;;8.25;7.68;;;3.00;99.90;;;;;;5024819;28;20132;-70
2020/12/28 05:54:42;;;;;;;7.80;7.40;;;3.00;99.90;;;;;;5024054;28;20096;-71
2020/12/28 05:57:09;;;;;;;8.25;7.70;;;3.00;99.90;;;;;;5004227;28;20540;-71
2020/12/28 05:59:38;;;;;;;8.10;7.60;;;3.00;99.90;;;;;;5043916;28;20568;-71
2020/12/28 06:02:08;;;;;;;7.47;7.07;;;3.00;99.90;;;;;;5042885;28;20144;-71
2020/12/28 06:04:37;;;;;;;8.35;7.85;;;3.00;99.90;;;;;;5044593;28;20053;-71
2020/12/28 06:07:04;;;;;;;8.82;8.23;;;2.90;99.90;;;;;;5013854;28;20048;-70
2020/12/28 06:09:30;;;;;;;8.13;7.63;;;3.00;99.90;;;;;;5025530;28;20451;-71
2020/12/28 06:12:10;;;;;;;8.50;8.00;;;2.90;99.90;;;;;;5037772;28;20051;-70
2020/12/28 06:14:37;;;;;;;8.40;7.90;;;3.00;99.90;;;;;;5026780;28;20044;-71
2020/12/28 06:17:06;;;;;;;8.38;7.90;;;3.00;99.90;;;;;;5042548;28;20095;-71
2020/12/28 06:19:32;;;;;;;8.55;8.05;;;3.00;99.90;;;;;;5044807;28;20080;-71
2020/12/28 06:21:59;;;;;;;8.77;8.27;;;3.10;99.90;;;;;;4993840;28;20063;-71
2020/12/28 06:24:30;;;;;;;8.90;8.40;;;3.00;99.90;;;;;;5025095;28;20061;-71
2020/12/28 06:27:03;;;;;;;8.73;8.32;;;3.00;99.90;;;;;;5006161;28;20053;-71
2020/12/28 06:29:31;;;;;;;9.02;8.52;;;3.00;99.90;;;;;;5006011;28;20052;-71
2020/12/28 06:32:09;;;;;;;8.32;7.82;;;3.00;99.90;;;;;;5038557;28;20033;-71
2020/12/28 06:34:35;;;;;;;8.35;7.95;;;3.10;99.90;;;;;;5029681;28;20052;-71
2020/12/28 06:37:02;;;;;;;9.02;8.52;;;3.10;99.90;;;;;;5005860;28;20060;-72
2020/12/28 06:39:28;;;;;;;8.48;8.07;;;3.10;99.90;;;;;;5047870;28;20083;-71
2020/12/28 06:42:07;;;;;;;9.60;9.02;;;3.10;99.90;;;;;;5047744;28;20494;-71
2020/12/28 06:44:33;;;;;;;10.90;10.15;;;3.10;99.90;;;;;;5047472;28;20140;-71
2020/12/28 06:47:01;;;;;;;11.32;10.63;;;3.10;99.90;;;;;;5047589;28;20136;-71
2020/12/28 06:49:27;;;;;;;11.23;10.52;;;3.10;99.90;;;;;;5026800;28;20038;-71
2020/12/28 06:52:01;;;;;;;10.30;9.70;;;3.10;99.90;;;;;;5026620;28;20038;-71
2020/12/28 06:54:27;;;;;;;11.38;10.57;;;3.10;99.90;;;;;;5028473;28;20148;-71
2020/12/28 06:56:54;;;;;;;9.93;9.32;;;3.00;99.90;;;;;;5038261;28;20052;-71
2020/12/28 06:59:21;;;;;;;10.48;9.88;;;2.90;99.90;;;;;;5047235;28;20059;-71
2020/12/28 07:01:47;;;;;;;12.20;11.20;;;2.80;99.90;;;;;;5046257;28;20088;-70
2020/12/28 07:04:14;;;;;;;10.77;10.07;;;2.80;99.90;;;;;;5029682;28;20159;-71
2020/12/28 07:06:40;;;;;;;10.73;10.02;;;2.70;99.90;;;;;;5020921;28;20063;-71
2020/12/28 07:09:08;;;;;;;10.52;9.82;;;2.60;99.90;;;;;;5048104;28;20128;-71
2020/12/28 07:11:35;;;;;;;10.02;9.43;;;2.60;99.90;;;;;;5045791;28;20147;-71
2020/12/28 07:14:05;;;;;;;10.52;9.82;;;2.60;99.90;;;;;;5046666;28;20387;-71
2020/12/28 07:16:32;;;;;;;10.07;9.38;;;2.60;99.90;;;;;;5045622;28;20067;-72
2020/12/28 07:19:05;;;;;;;10.35;9.75;;;2.70;99.90;;;;;;5012521;28;20522;-71
2020/12/28 07:21:32;;;;;;;10.27;9.68;;;2.70;99.90;;;;;;5047305;28;20100;-71
2020/12/28 07:23:58;;;;;;;10.35;9.65;;;2.70;99.90;;;;;;5046648;28;20055;-71
2020/12/28 07:26:27;;;;;;;9.73;9.13;;;2.70;99.90;;;;;;5028692;28;20045;-71
2020/12/28 07:28:53;;;;;;;9.80;9.20;;;2.80;99.90;;;;;;5029634;28;20473;-71
2020/12/28 07:31:23;;;;;;;9.90;9.20;;;2.80;99.90;;;;;;5046032;28;20147;-72
2020/12/28 07:33:50;;;;;;;9.90;9.30;;;2.80;99.90;;;;;;5046303;28;20071;-71
2020/12/28 07:36:20;;;;;;;9.07;8.48;;;2.90;99.90;;;;;;5038998;28;20042;-71
2020/12/28 07:38:48;;;;;;;10.35;9.73;;;2.90;99.90;;;;;;5045025;28;20099;-71
2020/12/28 07:41:22;;;;;;;10.88;10.27;;;2.90;99.90;;;;;;5039771;28;20128;-72
2020/12/28 07:43:53;;;;;;;9.77;9.18;;;2.90;99.90;;;;;;5026328;28;20053;-72
2020/12/28 07:46:45;;;;;;;8.98;8.48;;;2.90;99.90;;;;;;5008467;28;20133;-71
2020/12/28 07:49:18;;;;;;;9.88;9.27;;;2.90;99.90;;;;;;5029378;28;20100;-71
2020/12/28 07:51:49;;;;;;;9.98;9.45;;;2.90;99.90;;;;;;5028908;28;20045;-72
2020/12/28 07:54:22;;;;;;;10.70;10.05;;;2.90;99.90;;;;;;5028847;28;20056;-71
2020/12/28 07:56:58;;;;;;;9.73;9.23;;;3.00;99.90;;;;;;5032332;28;20077;-72
2020/12/28 07:59:47;;;;;;;10.10;9.57;;;3.00;99.90;;;;;;5029360;28;20063;-71
2020/12/28 08:02:23;;;;;;;9.95;9.35;;;3.00;99.90;;;;;;5011462;28;20057;-71
2020/12/28 08:04:50;;;;;;;9.95;9.35;;;3.00;99.90;;;;;;5045565;28;20171;-72
2020/12/28 08:07:21;;;;;;;10.45;9.85;;;3.10;99.90;;;;;;5037778;28;20413;-71
2020/12/28 08:09:55;;;;;;;10.32;9.82;;;3.10;99.90;;;;;;5046125;28;20065;-71
2020/12/28 08:12:22;;;;;;;10.32;9.75;;;3.10;99.90;;;;;;5045751;28;20049;-71
2020/12/28 08:14:55;;;;;;;10.25;9.75;;;3.20;99.90;;;;;;5029450;28;20140;-72
2020/12/28 08:17:25;;;;;;;10.27;9.77;;;3.10;99.90;;;;;;5045658;28;20127;-71
2020/12/28 08:20:05;;;;;;;10.25;9.75;;;3.20;99.90;;;;;;5028655;28;20413;-72
2020/12/28 08:22:31;;;;;;;10.02;9.52;;;3.20;99.90;;;;;;5045166;28;20053;-72
2020/12/28 08:25:03;;;;;;;11.65;10.90;;;3.20;99.90;;;;;;5045648;28;20513;-71
2020/12/28 08:27:33;;;;;;;11.02;10.25;;;3.20;99.90;;;;;;5028055;28;20072;-71
2020/12/28 08:30:00;;;;;;;10.10;9.43;;;3.30;99.90;;;;;;5028962;28;20041;-71
2020/12/28 08:32:28;;;;;;;10.23;9.73;;;3.30;99.90;;;;;;5045792;28;20144;-71
2020/12/28 08:35:00;;;;;;;10.95;10.38;;;3.30;99.90;;;;;;5045414;28;20049;-71
2020/12/28 08:37:35;;;;;;;11.23;10.73;;;3.40;99.90;;;;;;5035069;28;20049;-71
2020/12/28 08:40:12;;;;;;;10.35;9.85;;;3.40;99.90;;;;;;5025687;28;20569;-71
2020/12/28 08:42:38;;;;;;;11.80;11.10;;;3.50;99.90;;;;;;5028607;28;20594;-71
2020/12/28 08:45:04;;;;;;;12.55;11.77;;;3.60;99.90;;;;;;5028600;28;20052;-72
2020/12/28 08:47:31;;;;;;;11.25;10.65;;;3.60;99.90;;;;;;5044025;28;20481;-71
2020/12/28 08:49:57;;;;;;;11.52;11.00;;;3.60;99.90;;;;;;5045752;28;20285;-71
2020/12/28 08:52:24;;;;;;;11.30;10.77;;;3.60;99.90;;;;;;5008845;28;20073;-72
2020/12/28 08:54:54;;;;;;;10.57;10.18;;;3.50;99.90;;;;;;5024100;28;20132;-71
2020/12/28 08:57:22;;;;;;;11.57;10.95;;;3.40;99.90;;;;;;5037668;28;20045;-72
2020/12/28 08:59:49;;;;;;;12.00;11.23;;;3.30;99.90;;;;;;5008903;28;20061;-71
2020/12/28 09:02:17;;;;;;;12.27;11.35;;;3.30;99.90;;;;;;5023779;28;20053;-71
2020/12/28 09:04:44;;;;;;;16.92;15.23;;;3.20;99.90;;;;;;5044203;28;20045;-71
2020/12/28 09:07:10;;;;;;;11.15;10.45;;;3.10;99.90;;;;;;5036811;28;20048;-72
2020/12/28 09:09:41;;;;;;;10.18;9.68;;;3.20;99.90;;;;;;5046254;28;20059;-72
2020/12/28 09:12:09;;;;;;;11.23;10.25;;;3.30;99.90;;;;;;5043979;28;20636;-72
2020/12/28 09:14:35;;;;;;;10.20;9.75;;;3.30;99.90;;;;;;5044748;28;20048;-71
2020/12/28 09:17:13;;;;;;;10.52;9.93;;;3.30;99.90;;;;;;5043349;28;20317;-71
2020/12/28 09:19:40;;;;;;;10.95;10.25;;;3.30;99.90;;;;;;5045903;28;20135;-71
2020/12/28 09:22:06;;;;;;;10.65;10.15;;;3.40;99.90;;;;;;5026850;28;20160;-71
2020/12/28 09:24:32;;;;;;;10.73;10.23;;;3.60;99.90;;;;;;5044319;28;20045;-71
2020/12/28 09:26:59;;;;;;;11.07;10.57;;;3.70;99.90;;;;;;5043194;28;20533;-72
2020/12/28 09:29:25;;;;;;;11.13;10.63;;;3.80;99.90;;;;;;5045289;28;20055;-71
2020/12/28 09:31:53;;;;;;;10.95;10.55;;;4.00;99.90;;;;;;5044622;28;20048;-70
2020/12/28 09:34:19;;;;;;;12.48;11.88;;;4.20;99.90;;;;;;5027566;28;20049;-71
2020/12/28 09:36:45;;;;;;;12.43;11.82;;;4.30;99.90;;;;;;5033992;28;20049;-71
2020/12/28 09:39:12;;;;;;;11.45;10.98;;;4.40;99.90;;;;;;5042543;28;20112;-71
2020/12/28 09:41:38;;;;;;;12.10;11.55;;;4.40;99.90;;;;;;5041034;28;20037;-70
2020/12/28 09:44:04;;;;;;;12.40;11.90;;;4.40;99.90;;;;;;5044412;28;20045;-71
2020/12/28 09:46:31;;;;;;;11.30;10.85;;;4.50;99.90;;;;;;5008991;28;20041;-70
2020/12/28 09:48:57;;;;;;;12.70;12.20;;;4.50;99.90;;;;;;5026341;28;20041;-70
2020/12/28 09:51:23;;;;;;;12.75;12.15;;;4.50;99.90;;;;;;5033915;28;20084;-70
2020/12/28 09:53:50;;;;;;;11.80;11.30;;;4.40;99.90;;;;;;5026605;28;20056;-70
2020/12/28 09:56:36;;;;;;;11.02;10.63;;;4.30;99.90;;;;;;5022129;28;20464;-72
2020/12/28 09:59:03;;;;;;;10.48;10.05;;;4.20;99.90;;;;;;5028596;28;20140;-70
2020/12/28 10:01:29;;;;;;;11.63;11.02;;;4.20;99.90;;;;;;5041313;28;20136;-71
2020/12/28 10:03:55;;;;;;;11.32;10.82;;;4.20;99.90;;;;;;5042177;28;20053;-70
2020/12/28 10:06:31;;;;;;;11.63;11.02;;;4.10;99.90;;;;;;5036434;28;20056;-70
2020/12/28 10:09:01;;;;;;;12.10;11.50;;;4.10;99.90;;;;;;5028615;28;20503;-71
2020/12/28 10:11:28;;;;;;;12.15;11.55;;;4.20;99.90;;;;;;5030769;28;20052;-71
2020/12/28 10:13:54;;;;;;;10.98;10.57;;;4.10;99.90;;;;;;5021771;28;20538;-71
2020/12/28 10:16:24;;;;;;;10.95;10.48;;;4.20;99.90;;;;;;5005449;28;20065;-70
2020/12/28 10:18:53;;;;;;;10.70;10.30;;;4.30;99.90;;;;;;5027510;28;20063;-71
2020/12/28 10:21:20;;;;;;;10.60;10.20;;;4.20;99.90;;;;;;5025815;28;20049;-72
2020/12/28 10:23:47;;;;;;;10.57;10.18;;;4.20;99.90;;;;;;5040776;28;20063;-71
2020/12/28 10:26:28;;;;;;;10.68;10.27;;;4.20;99.90;;;;;;5042330;28;20060;-71
2020/12/28 10:28:56;;;;;;;10.13;9.65;;;4.30;99.90;;;;;;5041454;28;20060;-70
2020/12/28 10:31:23;;;;;;;10.27;9.57;;;4.40;99.90;;;;;;5042128;28;20076;-71
2020/12/28 10:33:54;;;;;;;10.30;9.90;;;4.40;99.90;;;;;;5025576;28;20052;-71
2020/12/28 10:36:25;;;;;;;10.63;10.13;;;4.60;99.90;;;;;;5036386;28;20498;-72
2020/12/28 10:38:54;;;;;;;9.27;8.95;;;4.60;99.90;;;;;;5043322;28;20114;-70
2020/12/28 10:41:38;;;;;;;8.38;8.07;;;4.50;99.90;;;;;;5035098;28;20053;-70
2020/12/28 10:44:05;;;;;;;8.82;8.43;;;4.60;99.90;;;;;;5042328;28;20057;-70
2020/12/28 10:46:34;;;;;;;7.63;7.32;;;4.60;99.90;;;;;;5041947;28;20164;-71
2020/12/28 10:49:00;;;;;;;7.78;7.47;;;4.60;99.90;;;;;;5005952;28;20045;-72
2020/12/28 10:51:26;;;;;;;6.72;6.43;;;4.70;99.90;;;;;;5039487;28;20570;-72
2020/12/28 10:53:53;;;;;;;6.07;5.88;;;4.80;99.90;;;;;;5026144;28;20041;-72
2020/12/28 10:56:24;;;;;;;6.90;6.60;;;4.80;99.90;;;;;;5033678;28;20442;-72
2020/12/28 10:58:51;;;;;;;7.38;6.97;;;4.90;99.90;;;;;;4989712;28;20569;-72
2020/12/28 11:01:21;;;;;;;7.40;7.10;;;4.90;99.90;;;;;;5036857;28;20147;-72
2020/12/28 11:03:50;;;;;;;8.05;7.68;;;5.00;99.90;;;;;;5040843;28;20057;-70
2020/12/28 11:06:18;;;;;;;7.60;7.30;;;5.00;99.90;;;;;;5017642;28;20111;-72
2020/12/28 11:08:45;;;;;;;7.68;7.28;;;5.00;99.90;;;;;;5023759;28;20136;-72
2020/12/28 11:11:11;;;;;;;8.75;8.30;;;4.80;99.90;;;;;;5033629;28;20040;-72
2020/12/28 11:13:37;;;;;;;7.97;7.45;;;4.80;99.90;;;;;;5043223;28;20072;-71
2020/12/28 11:16:04;;;;;;;7.57;7.28;;;4.80;99.90;;;;;;5042803;28;20059;-72
2020/12/28 11:18:30;;;;;;;7.75;7.43;;;4.80;99.90;;;;;;5025406;28;20055;-72
2020/12/28 11:20:56;;;;;;;7.65;7.35;;;4.90;99.90;;;;;;5043942;28;20083;-72
2020/12/28 11:23:23;;;;;;;8.38;8.02;;;4.80;99.90;;;;;;5045713;28;20429;-73
2020/12/28 11:25:49;;;;;;;7.63;7.22;;;4.80;99.90;;;;;;5045178;28;20139;-70
2020/12/28 11:28:16;;;;;;;8.30;7.90;;;4.80;99.90;;;;;;5044849;28;20045;-69
2020/12/28 11:30:42;;;;;;;8.45;8.15;;;4.70;99.90;;;;;;5044766;28;20049;-70
2020/12/28 11:33:09;;;;;;;7.65;7.28;;;4.60;99.90;;;;;;5028951;28;20075;-70
2020/12/28 11:35:35;;;;;;;7.47;7.10;;;4.60;99.90;;;;;;5042976;28;20075;-71
2020/12/28 11:38:01;;;;;;;7.97;7.57;;;4.50;99.90;;;;;;5033099;28;20099;-71
2020/12/28 11:40:27;;;;;;;8.63;8.23;;;4.60;99.90;;;;;;5020713;28;20049;-71
2020/12/28 11:42:54;;;;;;;8.07;7.57;;;4.60;99.90;;;;;;5043992;28;20063;-71
2020/12/28 11:45:20;;;;;;;9.40;8.82;;;4.60;99.90;;;;;;5046021;28;20117;-71
2020/12/28 11:47:46;;;;;;;9.20;8.70;;;4.60;99.90;;;;;;5033386;28;20045;-70
2020/12/28 11:50:13;;;;;;;9.50;9.00;;;4.60;99.90;;;;;;5034003;28;20073;-71
2020/12/28 11:52:40;;;;;;;10.38;9.77;;;4.60;99.90;;;;;;5045362;28;20389;-70
2020/12/28 11:55:06;;;;;;;8.68;8.27;;;4.70;99.90;;;;;;5020536;28;20832;-70
2020/12/28 11:57:32;;;;;;;8.73;8.40;;;4.70;99.90;;;;;;5024558;28;20055;-70
2020/12/28 11:59:59;;;;;;;8.88;8.48;;;4.80;99.90;;;;;;5006274;28;20239;-70
2020/12/28 12:02:25;;;;;;;9.20;8.68;;;4.80;99.90;;;;;;5039869;28;20147;-70
2020/12/28 12:04:53;;;;;;;8.70;8.27;;;5.00;99.90;;;;;;5018831;28;20081;-69
2020/12/28 12:07:21;;;;;;;8.88;8.43;;;5.10;99.90;;;;;;5038827;28;20041;-69
2020/12/28 12:09:49;;;;;;;8.80;8.40;;;5.20;99.90;;;;;;5042871;28;20049;-70
2020/12/28 12:12:17;;;;;;;9.70;9.20;;;5.30;99.90;;;;;;5043515;28;20080;-70
2020/12/28 12:14:43;;;;;;;14.13;13.10;;;5.30;99.90;;;;;;5026749;28;20048;-70
2020/12/28 12:17:10;;;;;;;9.77;9.35;;;5.40;99.90;;;;;;5043454;28;20099;-70
2020/12/28 12:19:37;;;;;;;31.48;18.33;;;5.20;99.90;;;;;;5037926;28;20041;-70
2020/12/28 12:22:04;;;;;;;17.05;14.23;;;5.20;99.90;;;;;;5041910;28;20057;-71
2020/12/28 12:24:30;;;;;;;10.65;9.75;;;5.20;99.90;;;;;;5043000;28;20056;-71
2020/12/28 12:26:57;;;;;;;10.88;10.27;;;5.30;99.90;;;;;;5031920;28;20103;-71
2020/12/28 12:29:23;;;;;;;9.82;9.40;;;5.40;99.90;;;;;;5043661;28;20048;-71
2020/12/28 12:31:51;;;;;;;8.93;8.32;;;5.40;99.90;;;;;;5017687;28;20056;-71
2020/12/28 12:34:17;;;;;;;26.60;13.32;;;5.40;99.90;;;;;;5029489;28;20075;-71
2020/12/28 12:36:44;;;;;;;27.17;13.48;;;5.40;99.90;;;;;;5039098;28;20629;-71
2020/12/28 12:39:11;;;;;;;9.77;9.20;;;5.20;99.90;;;;;;5029860;28;20107;-71
2020/12/28 12:41:37;;;;;;;14.25;12.38;;;5.20;99.90;;;;;;5038663;28;20053;-71
2020/12/28 12:44:03;;;;;;;9.10;8.70;;;5.30;99.90;;;;;;5043681;28;20056;-71
2020/12/28 12:46:30;;;;;;;9.85;9.35;;;5.20;99.90;;;;;;5041045;28;20140;-71
2020/12/28 12:48:56;;;;;;;11.10;10.18;;;5.10;99.90;;;;;;5043859;28;20045;-71
2020/12/28 12:51:22;;;;;;;9.65;9.00;;;5.20;99.90;;;;;;5010615;28;20116;-72
2020/12/28 12:53:49;;;;;;;9.20;8.68;;;5.40;99.90;;;;;;5026866;28;20079;-71
2020/12/28 12:56:22;;;;;;;9.40;8.73;;;5.40;99.90;;;;;;5041908;28;20052;-72
2020/12/28 12:58:50;;;;;;;9.33;8.73;;;5.40;99.90;;;;;;5044698;28;20061;-71
2020/12/28 13:01:17;;;;;;;9.52;8.85;;;5.30;99.90;;;;;;5039073;28;20092;-70
2020/12/28 13:03:43;;;;;;;9.00;8.50;;;5.30;99.90;;;;;;5023655;28;20053;-71
2020/12/28 13:06:10;;;;;;;13.75;11.60;;;5.30;99.90;;;;;;5016153;28;20108;-71
2020/12/28 13:08:37;;;;;;;13.40;12.10;;;5.40;99.90;;;;;;5015038;28;20045;-72